sensor_id;sensor_type;location;lat;lon;timestamp;P1;durP1;ratioP1;P2;durP2;ratioP2
2674;SDS011;1347;42.122;24.746;2024-03-02T00:00:52;50.07;;;28.47;;
2674;SDS011;1347;42.122;24.746;2024-03-02T00:03:20;44.50;;;26.13;;
2674;SDS011;1347;42.122;24.746;2024-03-02T00:05:50;43.50;;;28.13;;
2674;SDS011;1347;42.122;24.746;2024-03-02T00:08:21;39.17;;;26.70;;
2674;SDS011;1347;42.122;24.746;2024-03-02T00:10:50;42.93;;;26.70;;
2674;SDS011;1347;42.122;24.746;2024-03-02T00:13:19;39.83;;;25.33;;
2674;SDS011;1347;42.122;24.746;2024-03-02T00:15:48;37.53;;;24.47;;
2674;SDS011;1347;42.122;24.746;2024-03-02T00:18:18;47.40;;;28.50;;
2674;SDS011;1347;42.122;24.746;2024-03-02T00:20:47;43.90;;;27.17;;
2674;SDS011;1347;42.122;24.746;2024-03-02T00:23:15;46.23;;;26.20;;
2674;SDS011;1347;42.122;24.746;2024-03-02T00:25:44;43.23;;;27.67;;
2674;SDS011;1347;42.122;24.746;2024-03-02T00:28:14;41.60;;;26.73;;
2674;SDS011;1347;42.122;24.746;2024-03-02T00:33:34;50.50;;;28.73;;
2674;SDS011;1347;42.122;24.746;2024-03-02T00:36:02;44.57;;;27.67;;
2674;SDS011;1347;42.122;24.746;2024-03-02T00:38:30;47.43;;;29.10;;
2674;SDS011;1347;42.122;24.746;2024-03-02T00:40:58;50.07;;;28.77;;
2674;SDS011;1347;42.122;24.746;2024-03-02T00:46:26;50.43;;;27.63;;
2674;SDS011;1347;42.122;24.746;2024-03-02T00:48:57;44.47;;;28.67;;
2674;SDS011;1347;42.122;24.746;2024-03-02T00:51:26;47.90;;;28.83;;
2674;SDS011;1347;42.122;24.746;2024-03-02T00:53:54;51.77;;;29.97;;
2674;SDS011;1347;42.122;24.746;2024-03-02T00:56:22;53.43;;;31.60;;
2674;SDS011;1347;42.122;24.746;2024-03-02T00:58:50;60.13;;;31.47;;
2674;SDS011;1347;42.122;24.746;2024-03-02T01:01:17;48.70;;;30.50;;
2674;SDS011;1347;42.122;24.746;2024-03-02T01:03:44;46.37;;;28.90;;
2674;SDS011;1347;42.122;24.746;2024-03-02T01:06:13;50.97;;;30.57;;
2674;SDS011;1347;42.122;24.746;2024-03-02T01:08:40;51.07;;;30.27;;
2674;SDS011;1347;42.122;24.746;2024-03-02T01:11:07;48.43;;;30.33;;
2674;SDS011;1347;42.122;24.746;2024-03-02T01:13:34;50.53;;;30.83;;
2674;SDS011;1347;42.122;24.746;2024-03-02T01:16:01;55.77;;;30.90;;
2674;SDS011;1347;42.122;24.746;2024-03-02T01:18:29;51.03;;;31.60;;
2674;SDS011;1347;42.122;24.746;2024-03-02T01:20:56;56.90;;;29.30;;
2674;SDS011;1347;42.122;24.746;2024-03-02T01:23:24;54.43;;;31.23;;
2674;SDS011;1347;42.122;24.746;2024-03-02T01:25:51;55.60;;;31.43;;
2674;SDS011;1347;42.122;24.746;2024-03-02T01:28:18;64.83;;;33.33;;
2674;SDS011;1347;42.122;24.746;2024-03-02T01:30:46;69.43;;;35.50;;
2674;SDS011;1347;42.122;24.746;2024-03-02T01:33:14;66.90;;;34.00;;
2674;SDS011;1347;42.122;24.746;2024-03-02T01:35:41;64.00;;;33.73;;
2674;SDS011;1347;42.122;24.746;2024-03-02T01:38:08;68.83;;;34.30;;
2674;SDS011;1347;42.122;24.746;2024-03-02T01:40:36;73.80;;;35.87;;
2674;SDS011;1347;42.122;24.746;2024-03-02T01:43:04;72.80;;;35.40;;
2674;SDS011;1347;42.122;24.746;2024-03-02T01:45:31;64.93;;;33.07;;
2674;SDS011;1347;42.122;24.746;2024-03-02T01:47:58;68.50;;;34.97;;
2674;SDS011;1347;42.122;24.746;2024-03-02T01:50:27;80.40;;;36.20;;
2674;SDS011;1347;42.122;24.746;2024-03-02T01:52:55;75.43;;;34.97;;
2674;SDS011;1347;42.122;24.746;2024-03-02T01:55:22;80.13;;;38.60;;
2674;SDS011;1347;42.122;24.746;2024-03-02T01:57:51;87.73;;;38.90;;
2674;SDS011;1347;42.122;24.746;2024-03-02T02:00:19;88.27;;;40.30;;
2674;SDS011;1347;42.122;24.746;2024-03-02T02:02:47;79.00;;;36.50;;
2674;SDS011;1347;42.122;24.746;2024-03-02T02:05:14;76.37;;;37.20;;
2674;SDS011;1347;42.122;24.746;2024-03-02T02:07:42;77.67;;;37.40;;
2674;SDS011;1347;42.122;24.746;2024-03-02T02:10:09;84.23;;;36.90;;
2674;SDS011;1347;42.122;24.746;2024-03-02T02:12:36;71.77;;;35.13;;
2674;SDS011;1347;42.122;24.746;2024-03-02T02:15:07;73.93;;;36.23;;
2674;SDS011;1347;42.122;24.746;2024-03-02T02:17:48;76.73;;;36.40;;
2674;SDS011;1347;42.122;24.746;2024-03-02T02:20:15;66.00;;;33.73;;
2674;SDS011;1347;42.122;24.746;2024-03-02T02:22:53;62.17;;;31.63;;
2674;SDS011;1347;42.122;24.746;2024-03-02T02:25:23;60.90;;;30.73;;
2674;SDS011;1347;42.122;24.746;2024-03-02T02:27:50;59.80;;;31.17;;
2674;SDS011;1347;42.122;24.746;2024-03-02T02:30:21;62.27;;;28.60;;
2674;SDS011;1347;42.122;24.746;2024-03-02T02:32:48;63.00;;;32.70;;
2674;SDS011;1347;42.122;24.746;2024-03-02T02:35:14;57.17;;;29.57;;
2674;SDS011;1347;42.122;24.746;2024-03-02T02:37:41;63.77;;;32.90;;
2674;SDS011;1347;42.122;24.746;2024-03-02T02:40:10;53.47;;;32.27;;
2674;SDS011;1347;42.122;24.746;2024-03-02T02:42:38;50.80;;;31.37;;
2674;SDS011;1347;42.122;24.746;2024-03-02T02:45:05;54.10;;;31.77;;
2674;SDS011;1347;42.122;24.746;2024-03-02T02:47:32;58.67;;;32.50;;
2674;SDS011;1347;42.122;24.746;2024-03-02T02:50:00;61.40;;;32.37;;
2674;SDS011;1347;42.122;24.746;2024-03-02T02:52:30;56.67;;;33.03;;
2674;SDS011;1347;42.122;24.746;2024-03-02T02:55:00;56.50;;;32.80;;
2674;SDS011;1347;42.122;24.746;2024-03-02T02:57:29;60.13;;;29.80;;
2674;SDS011;1347;42.122;24.746;2024-03-02T03:00:00;58.20;;;29.83;;
2674;SDS011;1347;42.122;24.746;2024-03-02T03:02:29;52.27;;;27.50;;
2674;SDS011;1347;42.122;24.746;2024-03-02T03:04:56;57.17;;;28.77;;
2674;SDS011;1347;42.122;24.746;2024-03-02T03:07:22;46.80;;;28.83;;
2674;SDS011;1347;42.122;24.746;2024-03-02T03:09:48;49.70;;;28.00;;
2674;SDS011;1347;42.122;24.746;2024-03-02T03:15:40;50.53;;;27.77;;
2674;SDS011;1347;42.122;24.746;2024-03-02T03:18:07;53.43;;;27.27;;
2674;SDS011;1347;42.122;24.746;2024-03-02T03:20:35;49.33;;;28.37;;
2674;SDS011;1347;42.122;24.746;2024-03-02T03:23:02;49.30;;;26.30;;
2674;SDS011;1347;42.122;24.746;2024-03-02T03:25:30;45.30;;;27.87;;
2674;SDS011;1347;42.122;24.746;2024-03-02T03:27:57;47.53;;;30.70;;
2674;SDS011;1347;42.122;24.746;2024-03-02T03:30:23;51.53;;;31.57;;
2674;SDS011;1347;42.122;24.746;2024-03-02T03:32:52;51.20;;;31.33;;
2674;SDS011;1347;42.122;24.746;2024-03-02T03:35:18;49.83;;;31.40;;
2674;SDS011;1347;42.122;24.746;2024-03-02T03:37:45;43.97;;;27.53;;
2674;SDS011;1347;42.122;24.746;2024-03-02T03:40:12;38.33;;;24.80;;
2674;SDS011;1347;42.122;24.746;2024-03-02T03:42:39;48.60;;;27.60;;
2674;SDS011;1347;42.122;24.746;2024-03-02T03:45:06;49.20;;;28.97;;
2674;SDS011;1347;42.122;24.746;2024-03-02T03:47:33;46.57;;;29.17;;
2674;SDS011;1347;42.122;24.746;2024-03-02T03:50:02;44.33;;;27.67;;
2674;SDS011;1347;42.122;24.746;2024-03-02T03:52:32;45.63;;;25.80;;
2674;SDS011;1347;42.122;24.746;2024-03-02T03:54:59;52.53;;;26.90;;
2674;SDS011;1347;42.122;24.746;2024-03-02T03:57:26;51.47;;;27.93;;
2674;SDS011;1347;42.122;24.746;2024-03-02T03:59:53;55.90;;;27.40;;
2674;SDS011;1347;42.122;24.746;2024-03-02T04:02:19;50.40;;;27.07;;
2674;SDS011;1347;42.122;24.746;2024-03-02T04:04:47;49.07;;;28.67;;
2674;SDS011;1347;42.122;24.746;2024-03-02T04:07:15;53.00;;;29.27;;
2674;SDS011;1347;42.122;24.746;2024-03-02T04:09:42;51.07;;;28.03;;
2674;SDS011;1347;42.122;24.746;2024-03-02T04:12:08;45.77;;;28.07;;
2674;SDS011;1347;42.122;24.746;2024-03-02T04:14:35;46.97;;;27.90;;
2674;SDS011;1347;42.122;24.746;2024-03-02T04:17:02;45.83;;;25.93;;
2674;SDS011;1347;42.122;24.746;2024-03-02T04:19:29;52.07;;;28.77;;
2674;SDS011;1347;42.122;24.746;2024-03-02T04:21:56;43.07;;;27.33;;
2674;SDS011;1347;42.122;24.746;2024-03-02T04:24:24;56.80;;;28.27;;
2674;SDS011;1347;42.122;24.746;2024-03-02T04:26:51;51.17;;;29.53;;
2674;SDS011;1347;42.122;24.746;2024-03-02T04:29:19;49.97;;;27.90;;
2674;SDS011;1347;42.122;24.746;2024-03-02T04:31:46;53.80;;;30.10;;
2674;SDS011;1347;42.122;24.746;2024-03-02T04:34:12;58.33;;;29.97;;
2674;SDS011;1347;42.122;24.746;2024-03-02T04:36:39;57.40;;;29.67;;
2674;SDS011;1347;42.122;24.746;2024-03-02T04:39:06;64.03;;;31.67;;
2674;SDS011;1347;42.122;24.746;2024-03-02T04:41:36;59.20;;;28.77;;
2674;SDS011;1347;42.122;24.746;2024-03-02T04:44:03;58.30;;;27.93;;
2674;SDS011;1347;42.122;24.746;2024-03-02T04:46:29;55.10;;;28.00;;
2674;SDS011;1347;42.122;24.746;2024-03-02T04:48:58;54.03;;;28.17;;
2674;SDS011;1347;42.122;24.746;2024-03-02T04:51:24;58.10;;;30.57;;
2674;SDS011;1347;42.122;24.746;2024-03-02T04:53:51;73.20;;;31.47;;
2674;SDS011;1347;42.122;24.746;2024-03-02T04:56:18;64.43;;;30.90;;
2674;SDS011;1347;42.122;24.746;2024-03-02T04:59:10;58.50;;;27.87;;
2674;SDS011;1347;42.122;24.746;2024-03-02T05:01:36;55.80;;;28.30;;
2674;SDS011;1347;42.122;24.746;2024-03-02T05:04:03;51.87;;;27.03;;
2674;SDS011;1347;42.122;24.746;2024-03-02T05:06:30;52.97;;;28.53;;
2674;SDS011;1347;42.122;24.746;2024-03-02T05:08:57;48.30;;;26.30;;
2674;SDS011;1347;42.122;24.746;2024-03-02T05:11:23;51.53;;;27.83;;
2674;SDS011;1347;42.122;24.746;2024-03-02T05:14:25;64.10;;;27.23;;
2674;SDS011;1347;42.122;24.746;2024-03-02T05:16:53;48.10;;;25.73;;
2674;SDS011;1347;42.122;24.746;2024-03-02T05:19:20;47.60;;;25.37;;
2674;SDS011;1347;42.122;24.746;2024-03-02T05:21:46;52.53;;;27.20;;
2674;SDS011;1347;42.122;24.746;2024-03-02T05:24:13;43.13;;;24.23;;
2674;SDS011;1347;42.122;24.746;2024-03-02T05:26:40;56.10;;;28.67;;
2674;SDS011;1347;42.122;24.746;2024-03-02T05:29:07;49.33;;;25.70;;
2674;SDS011;1347;42.122;24.746;2024-03-02T05:31:35;51.20;;;26.30;;
2674;SDS011;1347;42.122;24.746;2024-03-02T05:34:02;45.77;;;27.53;;
2674;SDS011;1347;42.122;24.746;2024-03-02T05:36:30;47.77;;;26.43;;
2674;SDS011;1347;42.122;24.746;2024-03-02T05:38:57;49.17;;;27.03;;
2674;SDS011;1347;42.122;24.746;2024-03-02T05:41:24;47.27;;;26.10;;
2674;SDS011;1347;42.122;24.746;2024-03-02T05:43:51;46.60;;;28.50;;
2674;SDS011;1347;42.122;24.746;2024-03-02T05:46:18;46.90;;;26.10;;
2674;SDS011;1347;42.122;24.746;2024-03-02T05:48:46;47.03;;;26.30;;
2674;SDS011;1347;42.122;24.746;2024-03-02T05:51:13;45.30;;;25.13;;
2674;SDS011;1347;42.122;24.746;2024-03-02T05:53:39;45.33;;;27.20;;
2674;SDS011;1347;42.122;24.746;2024-03-02T05:56:07;45.20;;;25.80;;
2674;SDS011;1347;42.122;24.746;2024-03-02T05:58:34;48.57;;;25.17;;
2674;SDS011;1347;42.122;24.746;2024-03-02T06:01:14;45.30;;;26.57;;
2674;SDS011;1347;42.122;24.746;2024-03-02T06:03:43;48.67;;;25.33;;
2674;SDS011;1347;42.122;24.746;2024-03-02T06:06:11;53.67;;;29.00;;
2674;SDS011;1347;42.122;24.746;2024-03-02T06:08:38;43.50;;;26.43;;
2674;SDS011;1347;42.122;24.746;2024-03-02T06:11:05;44.97;;;26.17;;
2674;SDS011;1347;42.122;24.746;2024-03-02T06:13:31;46.03;;;24.57;;
2674;SDS011;1347;42.122;24.746;2024-03-02T06:15:58;43.83;;;23.70;;
2674;SDS011;1347;42.122;24.746;2024-03-02T06:18:25;35.47;;;21.80;;
2674;SDS011;1347;42.122;24.746;2024-03-02T06:20:53;46.93;;;25.10;;
2674;SDS011;1347;42.122;24.746;2024-03-02T06:23:21;42.83;;;23.77;;
2674;SDS011;1347;42.122;24.746;2024-03-02T06:25:48;34.90;;;21.50;;
2674;SDS011;1347;42.122;24.746;2024-03-02T06:28:15;42.30;;;22.70;;
2674;SDS011;1347;42.122;24.746;2024-03-02T06:30:42;38.90;;;22.97;;
2674;SDS011;1347;42.122;24.746;2024-03-02T06:33:09;45.93;;;25.63;;
2674;SDS011;1347;42.122;24.746;2024-03-02T06:35:36;42.10;;;23.87;;
2674;SDS011;1347;42.122;24.746;2024-03-02T06:38:03;36.17;;;22.77;;
2674;SDS011;1347;42.122;24.746;2024-03-02T06:40:31;37.77;;;21.37;;
2674;SDS011;1347;42.122;24.746;2024-03-02T06:42:59;31.60;;;19.47;;
2674;SDS011;1347;42.122;24.746;2024-03-02T06:45:26;33.93;;;20.33;;
2674;SDS011;1347;42.122;24.746;2024-03-02T06:47:53;34.30;;;21.10;;
2674;SDS011;1347;42.122;24.746;2024-03-02T06:50:20;34.43;;;20.67;;
2674;SDS011;1347;42.122;24.746;2024-03-02T06:52:46;32.63;;;20.00;;
2674;SDS011;1347;42.122;24.746;2024-03-02T06:55:13;34.40;;;22.27;;
2674;SDS011;1347;42.122;24.746;2024-03-02T06:57:42;35.57;;;21.57;;
2674;SDS011;1347;42.122;24.746;2024-03-02T07:00:09;27.67;;;19.23;;
2674;SDS011;1347;42.122;24.746;2024-03-02T07:02:36;29.00;;;20.07;;
2674;SDS011;1347;42.122;24.746;2024-03-02T07:05:06;29.40;;;19.63;;
2674;SDS011;1347;42.122;24.746;2024-03-02T07:07:33;33.37;;;20.00;;
2674;SDS011;1347;42.122;24.746;2024-03-02T07:10:02;28.20;;;19.43;;
2674;SDS011;1347;42.122;24.746;2024-03-02T07:12:29;37.40;;;19.30;;
2674;SDS011;1347;42.122;24.746;2024-03-02T07:14:57;42.13;;;21.87;;
2674;SDS011;1347;42.122;24.746;2024-03-02T07:17:42;35.00;;;21.60;;
2674;SDS011;1347;42.122;24.746;2024-03-02T07:20:09;38.40;;;22.37;;
2674;SDS011;1347;42.122;24.746;2024-03-02T07:22:37;39.70;;;21.50;;
2674;SDS011;1347;42.122;24.746;2024-03-02T07:25:05;34.73;;;21.57;;
2674;SDS011;1347;42.122;24.746;2024-03-02T07:27:33;32.20;;;21.63;;
2674;SDS011;1347;42.122;24.746;2024-03-02T07:30:01;37.17;;;21.73;;
2674;SDS011;1347;42.122;24.746;2024-03-02T07:32:28;37.60;;;22.53;;
2674;SDS011;1347;42.122;24.746;2024-03-02T07:34:55;37.60;;;21.80;;
2674;SDS011;1347;42.122;24.746;2024-03-02T07:37:22;36.57;;;22.50;;
2674;SDS011;1347;42.122;24.746;2024-03-02T07:39:49;41.30;;;22.70;;
2674;SDS011;1347;42.122;24.746;2024-03-02T07:42:17;44.23;;;23.73;;
2674;SDS011;1347;42.122;24.746;2024-03-02T07:44:44;43.53;;;25.83;;
2674;SDS011;1347;42.122;24.746;2024-03-02T07:47:12;37.67;;;23.10;;
2674;SDS011;1347;42.122;24.746;2024-03-02T07:49:39;42.70;;;24.83;;
2674;SDS011;1347;42.122;24.746;2024-03-02T07:52:06;38.67;;;24.17;;
2674;SDS011;1347;42.122;24.746;2024-03-02T07:54:33;41.47;;;24.77;;
2674;SDS011;1347;42.122;24.746;2024-03-02T07:57:00;39.03;;;22.27;;
2674;SDS011;1347;42.122;24.746;2024-03-02T07:59:27;40.10;;;22.57;;
2674;SDS011;1347;42.122;24.746;2024-03-02T08:01:54;41.77;;;23.60;;
2674;SDS011;1347;42.122;24.746;2024-03-02T08:04:23;36.83;;;22.20;;
2674;SDS011;1347;42.122;24.746;2024-03-02T08:06:50;32.43;;;21.27;;
2674;SDS011;1347;42.122;24.746;2024-03-02T08:09:17;37.63;;;23.87;;
2674;SDS011;1347;42.122;24.746;2024-03-02T08:11:44;36.80;;;23.50;;
2674;SDS011;1347;42.122;24.746;2024-03-02T08:14:10;44.03;;;23.40;;
2674;SDS011;1347;42.122;24.746;2024-03-02T08:16:37;47.40;;;25.90;;
2674;SDS011;1347;42.122;24.746;2024-03-02T08:19:04;47.13;;;26.90;;
2674;SDS011;1347;42.122;24.746;2024-03-02T08:21:33;40.07;;;24.73;;
2674;SDS011;1347;42.122;24.746;2024-03-02T08:24:01;47.43;;;25.87;;
2674;SDS011;1347;42.122;24.746;2024-03-02T08:26:29;42.10;;;25.17;;
2674;SDS011;1347;42.122;24.746;2024-03-02T08:28:57;40.37;;;25.47;;
2674;SDS011;1347;42.122;24.746;2024-03-02T08:31:23;35.00;;;23.10;;
2674;SDS011;1347;42.122;24.746;2024-03-02T08:33:50;35.67;;;23.60;;
2674;SDS011;1347;42.122;24.746;2024-03-02T08:36:17;38.83;;;24.23;;
2674;SDS011;1347;42.122;24.746;2024-03-02T08:38:46;34.60;;;22.73;;
2674;SDS011;1347;42.122;24.746;2024-03-02T08:41:14;34.80;;;22.97;;
2674;SDS011;1347;42.122;24.746;2024-03-02T08:43:41;28.43;;;20.60;;
2674;SDS011;1347;42.122;24.746;2024-03-02T08:46:09;27.77;;;18.97;;
2674;SDS011;1347;42.122;24.746;2024-03-02T08:48:36;25.50;;;17.50;;
2674;SDS011;1347;42.122;24.746;2024-03-02T08:51:03;27.43;;;18.73;;
2674;SDS011;1347;42.122;24.746;2024-03-02T08:53:33;24.93;;;18.17;;
2674;SDS011;1347;42.122;24.746;2024-03-02T08:56:01;27.93;;;18.60;;
2674;SDS011;1347;42.122;24.746;2024-03-02T08:58:30;26.03;;;18.00;;
2674;SDS011;1347;42.122;24.746;2024-03-02T09:00:57;24.53;;;17.77;;
2674;SDS011;1347;42.122;24.746;2024-03-02T09:03:24;25.30;;;18.00;;
2674;SDS011;1347;42.122;24.746;2024-03-02T09:05:51;26.73;;;16.90;;
2674;SDS011;1347;42.122;24.746;2024-03-02T09:08:18;26.50;;;18.50;;
2674;SDS011;1347;42.122;24.746;2024-03-02T09:10:45;27.30;;;18.70;;
2674;SDS011;1347;42.122;24.746;2024-03-02T09:13:13;33.10;;;19.63;;
2674;SDS011;1347;42.122;24.746;2024-03-02T09:15:40;27.67;;;18.23;;
2674;SDS011;1347;42.122;24.746;2024-03-02T09:18:07;23.70;;;17.80;;
2674;SDS011;1347;42.122;24.746;2024-03-02T09:20:34;27.60;;;18.30;;
2674;SDS011;1347;42.122;24.746;2024-03-02T09:23:01;33.47;;;19.10;;
2674;SDS011;1347;42.122;24.746;2024-03-02T09:25:28;33.10;;;19.53;;
2674;SDS011;1347;42.122;24.746;2024-03-02T09:27:55;29.67;;;19.60;;
2674;SDS011;1347;42.122;24.746;2024-03-02T09:30:23;31.00;;;19.57;;
2674;SDS011;1347;42.122;24.746;2024-03-02T09:32:50;32.77;;;19.47;;
2674;SDS011;1347;42.122;24.746;2024-03-02T09:35:16;32.20;;;19.97;;
2674;SDS011;1347;42.122;24.746;2024-03-02T09:37:43;29.20;;;20.00;;
2674;SDS011;1347;42.122;24.746;2024-03-02T09:40:10;28.73;;;19.90;;
2674;SDS011;1347;42.122;24.746;2024-03-02T09:42:37;42.37;;;23.37;;
2674;SDS011;1347;42.122;24.746;2024-03-02T09:45:05;35.03;;;22.73;;
2674;SDS011;1347;42.122;24.746;2024-03-02T09:47:34;43.07;;;22.97;;
2674;SDS011;1347;42.122;24.746;2024-03-02T09:50:01;35.20;;;22.73;;
2674;SDS011;1347;42.122;24.746;2024-03-02T09:52:29;38.13;;;22.37;;
2674;SDS011;1347;42.122;24.746;2024-03-02T09:54:57;44.80;;;21.70;;
2674;SDS011;1347;42.122;24.746;2024-03-02T09:57:24;30.70;;;20.57;;
2674;SDS011;1347;42.122;24.746;2024-03-02T09:59:51;37.87;;;22.57;;
2674;SDS011;1347;42.122;24.746;2024-03-02T10:02:18;36.13;;;22.97;;
2674;SDS011;1347;42.122;24.746;2024-03-02T10:04:47;46.37;;;25.00;;
2674;SDS011;1347;42.122;24.746;2024-03-02T10:07:15;33.83;;;21.27;;
2674;SDS011;1347;42.122;24.746;2024-03-02T10:09:42;38.37;;;23.57;;
2674;SDS011;1347;42.122;24.746;2024-03-02T10:12:11;36.50;;;22.07;;
2674;SDS011;1347;42.122;24.746;2024-03-02T10:14:39;43.43;;;25.20;;
2674;SDS011;1347;42.122;24.746;2024-03-02T10:17:06;34.33;;;22.27;;
2674;SDS011;1347;42.122;24.746;2024-03-02T10:19:34;34.40;;;22.67;;
2674;SDS011;1347;42.122;24.746;2024-03-02T10:22:03;34.10;;;24.40;;
2674;SDS011;1347;42.122;24.746;2024-03-02T10:24:35;38.00;;;22.97;;
2674;SDS011;1347;42.122;24.746;2024-03-02T10:27:07;39.07;;;24.60;;
2674;SDS011;1347;42.122;24.746;2024-03-02T10:29:38;36.60;;;25.23;;
2674;SDS011;1347;42.122;24.746;2024-03-02T10:32:08;33.17;;;21.90;;
2674;SDS011;1347;42.122;24.746;2024-03-02T10:34:36;38.53;;;25.10;;
2674;SDS011;1347;42.122;24.746;2024-03-02T10:37:04;37.37;;;24.77;;
2674;SDS011;1347;42.122;24.746;2024-03-02T10:39:32;34.27;;;24.40;;
2674;SDS011;1347;42.122;24.746;2024-03-02T10:42:01;37.63;;;25.43;;
2674;SDS011;1347;42.122;24.746;2024-03-02T10:44:30;41.63;;;27.80;;
2674;SDS011;1347;42.122;24.746;2024-03-02T10:46:59;41.27;;;27.30;;
2674;SDS011;1347;42.122;24.746;2024-03-02T10:49:27;36.93;;;26.43;;
2674;SDS011;1347;42.122;24.746;2024-03-02T10:51:56;40.10;;;26.37;;
2674;SDS011;1347;42.122;24.746;2024-03-02T10:54:24;39.77;;;26.60;;
2674;SDS011;1347;42.122;24.746;2024-03-02T10:56:54;36.13;;;26.50;;
2674;SDS011;1347;42.122;24.746;2024-03-02T10:59:26;41.30;;;26.77;;
2674;SDS011;1347;42.122;24.746;2024-03-02T11:01:56;40.23;;;25.70;;
2674;SDS011;1347;42.122;24.746;2024-03-02T11:04:24;45.70;;;26.40;;
2674;SDS011;1347;42.122;24.746;2024-03-02T11:06:52;41.07;;;26.87;;
2674;SDS011;1347;42.122;24.746;2024-03-02T11:09:27;41.17;;;27.30;;
2674;SDS011;1347;42.122;24.746;2024-03-02T11:11:57;35.10;;;24.07;;
2674;SDS011;1347;42.122;24.746;2024-03-02T11:17:40;35.33;;;24.90;;
2674;SDS011;1347;42.122;24.746;2024-03-02T11:20:08;37.00;;;26.67;;
2674;SDS011;1347;42.122;24.746;2024-03-02T11:22:36;36.17;;;25.80;;
2674;SDS011;1347;42.122;24.746;2024-03-02T11:25:05;38.30;;;27.60;;
2674;SDS011;1347;42.122;24.746;2024-03-02T11:27:59;39.40;;;29.67;;
2674;SDS011;1347;42.122;24.746;2024-03-02T11:33:18;37.60;;;24.27;;
2674;SDS011;1347;42.122;24.746;2024-03-02T11:35:52;31.03;;;24.50;;
2674;SDS011;1347;42.122;24.746;2024-03-02T11:38:19;26.67;;;20.53;;
2674;SDS011;1347;42.122;24.746;2024-03-02T11:40:47;30.20;;;23.80;;
2674;SDS011;1347;42.122;24.746;2024-03-02T11:43:14;31.57;;;23.60;;
2674;SDS011;1347;42.122;24.746;2024-03-02T11:45:42;29.47;;;23.57;;
2674;SDS011;1347;42.122;24.746;2024-03-02T11:48:11;29.30;;;24.07;;
2674;SDS011;1347;42.122;24.746;2024-03-02T11:50:40;29.90;;;24.63;;
2674;SDS011;1347;42.122;24.746;2024-03-02T11:53:09;33.47;;;26.00;;
2674;SDS011;1347;42.122;24.746;2024-03-02T11:55:39;32.90;;;26.00;;
2674;SDS011;1347;42.122;24.746;2024-03-02T11:58:10;28.40;;;22.60;;
2674;SDS011;1347;42.122;24.746;2024-03-02T12:00:37;33.40;;;25.90;;
2674;SDS011;1347;42.122;24.746;2024-03-02T12:03:04;24.53;;;19.13;;
2674;SDS011;1347;42.122;24.746;2024-03-02T12:05:33;23.60;;;20.80;;
2674;SDS011;1347;42.122;24.746;2024-03-02T12:08:01;26.00;;;20.40;;
2674;SDS011;1347;42.122;24.746;2024-03-02T12:10:32;25.30;;;19.93;;
2674;SDS011;1347;42.122;24.746;2024-03-02T12:13:00;29.20;;;22.00;;
2674;SDS011;1347;42.122;24.746;2024-03-02T12:15:29;24.20;;;20.50;;
2674;SDS011;1347;42.122;24.746;2024-03-02T12:17:57;23.63;;;19.47;;
2674;SDS011;1347;42.122;24.746;2024-03-02T12:20:25;28.97;;;20.97;;
2674;SDS011;1347;42.122;24.746;2024-03-02T12:22:55;22.60;;;19.60;;
2674;SDS011;1347;42.122;24.746;2024-03-02T12:25:24;25.90;;;21.67;;
2674;SDS011;1347;42.122;24.746;2024-03-02T12:27:52;27.97;;;21.80;;
2674;SDS011;1347;42.122;24.746;2024-03-02T12:30:21;26.63;;;21.97;;
2674;SDS011;1347;42.122;24.746;2024-03-02T12:32:50;21.83;;;19.43;;
2674;SDS011;1347;42.122;24.746;2024-03-02T12:35:17;22.10;;;19.70;;
2674;SDS011;1347;42.122;24.746;2024-03-02T12:37:44;23.73;;;19.60;;
2674;SDS011;1347;42.122;24.746;2024-03-02T12:40:12;22.10;;;19.23;;
2674;SDS011;1347;42.122;24.746;2024-03-02T12:42:40;22.63;;;20.20;;
2674;SDS011;1347;42.122;24.746;2024-03-02T12:45:07;27.00;;;22.47;;
2674;SDS011;1347;42.122;24.746;2024-03-02T12:47:34;26.60;;;20.80;;
2674;SDS011;1347;42.122;24.746;2024-03-02T12:50:03;22.43;;;19.67;;
2674;SDS011;1347;42.122;24.746;2024-03-02T12:52:31;23.30;;;20.30;;
2674;SDS011;1347;42.122;24.746;2024-03-02T12:54:59;24.80;;;21.43;;
2674;SDS011;1347;42.122;24.746;2024-03-02T12:57:29;24.77;;;20.70;;
2674;SDS011;1347;42.122;24.746;2024-03-02T12:59:58;24.70;;;21.37;;
2674;SDS011;1347;42.122;24.746;2024-03-02T13:02:27;26.37;;;22.30;;
2674;SDS011;1347;42.122;24.746;2024-03-02T13:04:55;26.90;;;21.90;;
2674;SDS011;1347;42.122;24.746;2024-03-02T13:07:25;26.33;;;21.80;;
2674;SDS011;1347;42.122;24.746;2024-03-02T13:09:52;22.03;;;19.40;;
2674;SDS011;1347;42.122;24.746;2024-03-02T13:12:21;29.00;;;24.03;;
2674;SDS011;1347;42.122;24.746;2024-03-02T13:14:49;28.50;;;24.10;;
2674;SDS011;1347;42.122;24.746;2024-03-02T13:17:17;28.27;;;22.50;;
2674;SDS011;1347;42.122;24.746;2024-03-02T13:19:53;26.57;;;22.10;;
2674;SDS011;1347;42.122;24.746;2024-03-02T13:22:21;28.27;;;22.10;;
2674;SDS011;1347;42.122;24.746;2024-03-02T13:24:50;29.37;;;24.63;;
2674;SDS011;1347;42.122;24.746;2024-03-02T13:27:17;28.73;;;23.30;;
2674;SDS011;1347;42.122;24.746;2024-03-02T13:29:45;26.83;;;22.10;;
2674;SDS011;1347;42.122;24.746;2024-03-02T13:32:13;28.70;;;22.70;;
2674;SDS011;1347;42.122;24.746;2024-03-02T13:34:40;30.60;;;22.87;;
2674;SDS011;1347;42.122;24.746;2024-03-02T13:37:07;26.20;;;22.23;;
2674;SDS011;1347;42.122;24.746;2024-03-02T13:39:34;25.03;;;22.13;;
2674;SDS011;1347;42.122;24.746;2024-03-02T13:42:07;22.73;;;19.93;;
2674;SDS011;1347;42.122;24.746;2024-03-02T13:44:34;26.50;;;21.40;;
2674;SDS011;1347;42.122;24.746;2024-03-02T13:47:01;27.73;;;21.80;;
2674;SDS011;1347;42.122;24.746;2024-03-02T13:49:29;25.47;;;21.27;;
2674;SDS011;1347;42.122;24.746;2024-03-02T13:52:01;27.40;;;23.00;;
2674;SDS011;1347;42.122;24.746;2024-03-02T13:54:36;27.67;;;22.33;;
2674;SDS011;1347;42.122;24.746;2024-03-02T13:57:04;26.83;;;22.90;;
2674;SDS011;1347;42.122;24.746;2024-03-02T13:59:33;26.93;;;19.93;;
2674;SDS011;1347;42.122;24.746;2024-03-02T14:02:00;27.37;;;21.60;;
2674;SDS011;1347;42.122;24.746;2024-03-02T14:04:29;25.17;;;21.07;;
2674;SDS011;1347;42.122;24.746;2024-03-02T14:06:56;21.57;;;18.73;;
2674;SDS011;1347;42.122;24.746;2024-03-02T14:09:23;28.80;;;21.63;;
2674;SDS011;1347;42.122;24.746;2024-03-02T14:11:50;24.67;;;20.20;;
2674;SDS011;1347;42.122;24.746;2024-03-02T14:14:17;22.60;;;19.43;;
2674;SDS011;1347;42.122;24.746;2024-03-02T14:16:45;28.37;;;21.53;;
2674;SDS011;1347;42.122;24.746;2024-03-02T14:19:12;23.50;;;20.20;;
2674;SDS011;1347;42.122;24.746;2024-03-02T14:21:40;22.90;;;18.83;;
2674;SDS011;1347;42.122;24.746;2024-03-02T14:24:07;23.27;;;18.90;;
2674;SDS011;1347;42.122;24.746;2024-03-02T14:26:34;22.50;;;18.67;;
2674;SDS011;1347;42.122;24.746;2024-03-02T14:29:02;27.07;;;19.80;;
2674;SDS011;1347;42.122;24.746;2024-03-02T14:31:30;27.00;;;20.67;;
2674;SDS011;1347;42.122;24.746;2024-03-02T14:33:58;22.13;;;16.80;;
2674;SDS011;1347;42.122;24.746;2024-03-02T14:36:26;21.50;;;18.53;;
2674;SDS011;1347;42.122;24.746;2024-03-02T14:38:53;25.30;;;18.87;;
2674;SDS011;1347;42.122;24.746;2024-03-02T14:41:20;21.97;;;18.73;;
2674;SDS011;1347;42.122;24.746;2024-03-02T14:43:49;23.53;;;18.77;;
2674;SDS011;1347;42.122;24.746;2024-03-02T14:46:16;23.63;;;19.07;;
2674;SDS011;1347;42.122;24.746;2024-03-02T14:48:43;22.33;;;19.03;;
2674;SDS011;1347;42.122;24.746;2024-03-02T14:51:13;21.03;;;16.67;;
2674;SDS011;1347;42.122;24.746;2024-03-02T14:53:40;18.00;;;16.10;;